»·PEaware :: AAL243 KSFO-KSAN

AAL243 :: KSFO-KSAN

FLIGHT INFORMATION

Flight Status: Arrived
Operator:
American Airlines
More flights by this operator :: More flights under this callsign
Pilot: Tatianna C. (7783)
Aircraft: BOEING 737-800
(B738)
More flights by this aircraft type
Origin: KSFO San Francisco Intl
United States
Destination: KSAN San Diego Intl-Lindbergh
United States
More flights between these airports :: More routes between these airports
Route: +OFFSH1 MCKEY LAX COMIX1
File this flight plan on PilotEdge
Remarks:
Altitude:
(Current/Filed)
35,000ft
Speed:
(Current/Filed)
458kts
Departed: 19-Dec-17 08:09 PM
Arrived: 19-Dec-17 09:23 PM
Distance/Time
Traveled:
388nm/1:13
Distance/Time
To Go:
Arrived

Flight Plot

Page will automatically refresh every two minutes.

Flight plan parsing failed; only flown route is shown


Map Options




Map Legend


Flown Route
Filed Route
Departure Airport
Arrival Airport
Navaid (VOR, NDB)
Fix

Horizontal Profiles

Position Reports

Time Latitude Longitude Heading Altitude Ground
Speed
19-Dec-17 19:47 37.618332 -122.382006 139 19ft 0kts
19-Dec-17 19:48 37.618332 -122.382006 139 19ft 0kts
19-Dec-17 19:49 37.618332 -122.382006 139 19ft 0kts
19-Dec-17 19:50 37.618332 -122.382006 139 19ft 0kts
19-Dec-17 19:51 37.618332 -122.382006 139 19ft 0kts
19-Dec-17 19:52 37.618332 -122.382006 139 19ft 0kts
19-Dec-17 19:53 37.618332 -122.382006 139 19ft 0kts
19-Dec-17 19:54 37.618332 -122.382006 139 19ft 0kts
19-Dec-17 19:55 37.618332 -122.382006 139 19ft 0kts
19-Dec-17 19:56 37.618332 -122.382006 139 19ft 0kts
19-Dec-17 19:57 37.618332 -122.382006 139 19ft 0kts
19-Dec-17 19:58 37.618332 -122.382006 139 19ft 0kts
19-Dec-17 19:59 37.618332 -122.382006 139 19ft 0kts
19-Dec-17 20:00 37.618332 -122.382006 139 19ft 0kts
19-Dec-17 20:01 37.618332 -122.382006 139 19ft 0kts
19-Dec-17 20:02 37.618332 -122.382006 139 19ft 0kts
19-Dec-17 20:03 37.618332 -122.382006 139 19ft 0kts
19-Dec-17 20:04 37.618332 -122.382006 139 19ft 0kts
19-Dec-17 20:05 37.618447 -122.382133 138 19ft 2kts
19-Dec-17 20:06 37.618415 -122.382740 22 19ft 0kts
19-Dec-17 20:07 37.618398 -122.382749 21 19ft 0kts
19-Dec-17 20:08 37.618524 -122.382674 26 19ft 4kts
19-Dec-17 20:09 37.619243 -122.381070 116 19ft 7kts
19-Dec-17 20:10 37.616985 -122.379503 193 19ft 12kts
19-Dec-17 20:11 37.613405 -122.381770 207 19ft 15kts
19-Dec-17 20:12 37.610455 -122.383750 209 19ft 9kts
19-Dec-17 20:13 37.608516 -122.383966 118 19ft 2kts
19-Dec-17 20:14 37.608355 -122.383601 119 19ft 6kts
19-Dec-17 20:15 37.622185 -122.373491 27 63ft 163kts
19-Dec-17 20:16 37.667490 -122.361959 346 1930ft 209kts
19-Dec-17 20:17 37.707338 -122.407212 249 3996ft 233kts
19-Dec-17 20:18 37.654442 -122.462427 216 6689ft 266kts
19-Dec-17 20:19 37.593576 -122.516136 217 9895ft 275kts
19-Dec-17 20:20 37.518338 -122.577319 216 9947ft 326kts
19-Dec-17 20:21 37.451705 -122.630413 216 9969ft 272kts
19-Dec-17 20:22 37.380894 -122.665908 177 10702ft 315kts
19-Dec-17 20:23 37.306948 -122.649769 175 13119ft 331kts
19-Dec-17 20:24 37.200306 -122.629858 179 16460ft 343kts
19-Dec-17 20:25 37.120736 -122.612219 176 18726ft 355kts
19-Dec-17 20:26 37.005397 -122.582961 175 21558ft 374kts
19-Dec-17 20:27 36.929044 -122.523262 146 23397ft 407kts
19-Dec-17 20:28 36.840805 -122.433426 146 25538ft 420kts
19-Dec-17 20:29 36.735434 -122.326399 147 28251ft 420kts
19-Dec-17 20:30 36.661087 -122.251030 147 30027ft 417kts
19-Dec-17 20:31 36.571609 -122.160628 147 31750ft 417kts
19-Dec-17 20:32 36.481648 -122.070040 147 33250ft 418kts
19-Dec-17 20:33 36.391291 -121.979345 147 34660ft 417kts
19-Dec-17 20:34 36.300876 -121.888977 147 35223ft 432kts
19-Dec-17 20:35 36.205114 -121.793646 147 35224ft 461kts
19-Dec-17 20:36 36.102518 -121.691774 146 35215ft 480kts
19-Dec-17 20:37 35.998775 -121.588998 146 35214ft 479kts
19-Dec-17 20:38 35.895254 -121.486794 146 35209ft 480kts
19-Dec-17 20:39 35.802112 -121.395142 146 35223ft 480kts
19-Dec-17 20:40 35.699205 -121.294154 147 35213ft 479kts
19-Dec-17 20:41 35.596141 -121.192189 139 35192ft 485kts
19-Dec-17 20:42 35.519143 -121.053884 130 35209ft 492kts
19-Dec-17 20:43 35.439815 -120.918013 130 35211ft 492kts
19-Dec-17 20:44 35.360291 -120.782368 130 35237ft 491kts
19-Dec-17 20:45 35.280629 -120.647042 130 35241ft 491kts
19-Dec-17 20:46 35.200743 -120.511887 130 35243ft 492kts
19-Dec-17 20:47 35.122864 -120.380649 130 35244ft 492kts
19-Dec-17 20:48 35.045071 -120.250104 127 35236ft 484kts
19-Dec-17 20:49 34.966646 -120.118769 127 35238ft 483kts
19-Dec-17 20:50 34.888380 -119.988199 127 35237ft 482kts
19-Dec-17 20:51 34.809732 -119.857496 127 35237ft 482kts
19-Dec-17 20:52 34.730904 -119.726997 127 35213ft 481kts
19-Dec-17 20:53 34.653173 -119.598805 127 35212ft 480kts
19-Dec-17 20:54 34.573885 -119.468522 127 35213ft 479kts
19-Dec-17 20:55 34.495922 -119.340905 127 35201ft 473kts
19-Dec-17 20:56 34.417592 -119.212946 127 35208ft 478kts
19-Dec-17 20:57 34.338713 -119.084614 127 35210ft 477kts
19-Dec-17 20:58 34.259824 -118.956744 127 35211ft 476kts
19-Dec-17 20:59 34.180782 -118.829095 127 35212ft 475kts
19-Dec-17 21:00 34.102056 -118.702413 127 35213ft 474kts
19-Dec-17 21:01 34.026363 -118.573275 120 35236ft 474kts
19-Dec-17 21:02 33.951133 -118.456931 132 35190ft 457kts
19-Dec-17 21:03 33.872855 -118.354105 132 33832ft 425kts
19-Dec-17 21:04 33.795477 -118.253845 133 31781ft 411kts
19-Dec-17 21:05 33.719510 -118.154531 132 29773ft 408kts
19-Dec-17 21:06 33.642558 -118.053693 133 27725ft 413kts
19-Dec-17 21:07 33.565303 -117.952459 133 25670ft 415kts
19-Dec-17 21:08 33.484816 -117.856657 137 23624ft 403kts
19-Dec-17 21:09 33.406732 -117.764535 135 21651ft 391kts
19-Dec-17 21:10 33.331973 -117.673402 136 19733ft 379kts
19-Dec-17 21:11 33.258809 -117.585321 143 17863ft 367kts
19-Dec-17 21:12 33.176363 -117.516351 147 15938ft 361kts
19-Dec-17 21:13 33.095892 -117.449182 146 14055ft 348kts
19-Dec-17 21:14 33.017840 -117.383960 146 12447ft 340kts
19-Dec-17 21:15 32.944097 -117.322096 147 10893ft 301kts
19-Dec-17 21:16 32.900199 -117.247277 111 9322ft 279kts
19-Dec-17 21:17 32.872099 -117.164548 111 8167ft 267kts
19-Dec-17 21:18 32.846155 -117.086079 111 7099ft 253kts
19-Dec-17 21:19 32.820856 -117.008980 111 5847ft 248kts
19-Dec-17 21:20 32.795624 -116.933379 111 4967ft 244kts
19-Dec-17 21:21 32.770271 -116.859085 111 4963ft 242kts
19-Dec-17 21:22 32.715497 -116.836699 191 4003ft 242kts
19-Dec-17 21:23 32.662035 -116.880969 255 3979ft 244kts
19-Dec-17 21:24 32.677161 -116.958886 286 4041ft 238kts
19-Dec-17 21:25 32.694745 -117.030219 286 2911ft 218kts
19-Dec-17 21:26 32.710821 -117.096092 287 1582ft 194kts
19-Dec-17 21:27 32.724652 -117.152553 286 559ft 161kts
19-Dec-17 21:28 32.735014 -117.195621 287 20ft 73kts
19-Dec-17 21:29 32.735714 -117.202141 194 18ft 0kts
19-Dec-17 21:30 32.734460 -117.201805 177 18ft 9kts
19-Dec-17 21:31 32.734109 -117.201792 179 18ft 0kts
19-Dec-17 21:32 32.734109 -117.201792 179 18ft 0kts
19-Dec-17 21:33 32.734109 -117.201792 179 18ft 0kts
19-Dec-17 21:34 32.734109 -117.201792 179 18ft 0kts
19-Dec-17 21:35 32.734109 -117.201792 179 18ft 0kts
19-Dec-17 21:36 32.734109 -117.201792 179 18ft 0kts
19-Dec-17 21:37 32.734109 -117.201792 179 18ft 0kts
19-Dec-17 21:38 32.734109 -117.201792 179 18ft 0kts
19-Dec-17 21:39 32.734109 -117.201792 179 18ft 0kts
19-Dec-17 21:40 32.734109 -117.201792 179 18ft 0kts
19-Dec-17 21:41 32.734109 -117.201792 179 18ft 0kts
19-Dec-17 21:42 32.734109 -117.201792 179 18ft 0kts
19-Dec-17 21:43 32.734109 -117.201792 179 18ft 0kts

Navigation Log

Ident Type
Flight plan parsing failed, navigation log unavailable